createdAt,value
2023-06-06T00:00:11.238Z,14.42
2023-06-06T00:01:12.143Z,14.41
2023-06-06T00:02:13.004Z,14.41
2023-06-06T00:03:13.135Z,14.41
2023-06-06T00:04:13.911Z,14.40
2023-06-06T00:05:14.731Z,14.40
2023-06-06T00:06:15.606Z,14.39
2023-06-06T00:07:16.521Z,14.38
2023-06-06T00:08:16.655Z,14.38
2023-06-06T00:09:16.577Z,14.38
2023-06-06T00:10:16.626Z,14.37
2023-06-06T00:11:17.318Z,14.37
2023-06-06T00:12:18.096Z,14.36
2023-06-06T00:13:18.715Z,14.35
2023-06-06T00:13:29.126Z,11.52
2023-06-06T00:14:29.821Z,14.30
2023-06-06T00:15:30.243Z,14.30
2023-06-06T00:16:30.899Z,14.29
2023-06-06T00:17:31.436Z,14.29
2023-06-06T00:18:32.260Z,14.29
2023-06-06T00:19:32.901Z,14.29
2023-06-06T00:20:33.574Z,14.28
2023-06-06T00:21:34.215Z,14.27
2023-06-06T00:22:34.733Z,14.27
2023-06-06T00:23:35.343Z,14.26
2023-06-06T00:24:36.194Z,14.25
2023-06-06T00:25:36.717Z,14.25
2023-06-06T00:26:37.628Z,14.24
2023-06-06T00:27:39.391Z,14.23
2023-06-06T00:28:39.040Z,14.23
2023-06-06T00:29:39.219Z,14.22
2023-06-06T00:30:40.782Z,14.21
2023-06-06T00:31:40.467Z,14.20
2023-06-06T00:32:41.136Z,14.20
2023-06-06T00:33:41.925Z,14.19
2023-06-06T00:34:42.595Z,14.19
2023-06-06T00:35:43.245Z,14.18
2023-06-06T00:36:44.181Z,14.17
2023-06-06T00:37:44.901Z,14.16
2023-06-06T00:38:45.578Z,14.15
2023-06-06T00:39:46.152Z,14.13
2023-06-06T00:40:46.485Z,14.12
2023-06-06T00:41:46.594Z,14.11
2023-06-06T00:42:46.850Z,14.10
2023-06-06T00:43:47.780Z,14.08
2023-06-06T00:44:47.874Z,14.06
2023-06-06T00:44:56.902Z,10.59
2023-06-06T00:45:57.740Z,13.76
2023-06-06T00:46:57.942Z,13.77
2023-06-06T00:47:58.222Z,13.78
2023-06-06T00:48:58.198Z,13.78
2023-06-06T00:49:59.115Z,13.79
2023-06-06T00:50:59.076Z,13.79
2023-06-06T00:51:59.924Z,13.79
2023-06-06T00:53:00.582Z,13.78
2023-06-06T00:54:01.162Z,13.78
2023-06-06T00:55:01.713Z,13.78
2023-06-06T00:56:02.194Z,13.78
2023-06-06T00:57:02.705Z,13.77
2023-06-06T00:58:03.325Z,13.77
2023-06-06T00:59:04.034Z,13.76
2023-06-06T01:00:04.719Z,13.75
2023-06-06T01:01:05.418Z,13.75
2023-06-06T01:02:05.886Z,13.75
2023-06-06T01:03:06.038Z,13.75
2023-06-06T01:04:06.554Z,13.75
2023-06-06T01:05:06.790Z,13.74
2023-06-06T01:06:07.389Z,13.74
2023-06-06T01:07:07.963Z,13.74
2023-06-06T01:08:08.492Z,13.73
2023-06-06T01:09:09.161Z,13.72
2023-06-06T01:10:09.148Z,13.70
2023-06-06T01:11:10.000Z,13.69
2023-06-06T01:12:10.431Z,13.67
2023-06-06T01:13:10.646Z,13.65
2023-06-06T01:14:11.273Z,13.63
2023-06-06T01:15:11.956Z,13.62
2023-06-06T01:15:20.622Z,11.88
2023-06-06T01:16:21.181Z,13.40
2023-06-06T01:17:21.758Z,13.40
2023-06-06T01:18:22.517Z,13.40
2023-06-06T01:19:23.075Z,13.39
2023-06-06T01:20:23.657Z,13.39
2023-06-06T01:21:24.158Z,13.38
2023-06-06T01:22:24.782Z,13.37
2023-06-06T01:23:25.436Z,13.36
2023-06-06T01:24:26.086Z,13.35
2023-06-06T01:25:26.742Z,13.34
2023-06-06T01:26:27.195Z,13.33
2023-06-06T01:27:27.805Z,13.32
2023-06-06T01:28:28.497Z,13.32
2023-06-06T01:29:28.772Z,13.31
2023-06-06T01:30:30.484Z,13.31
2023-06-06T01:31:30.405Z,13.30
2023-06-06T01:32:31.164Z,13.30
2023-06-06T01:33:31.654Z,13.30
2023-06-06T01:34:32.282Z,13.30
2023-06-06T01:35:33.058Z,13.30
2023-06-06T01:36:33.795Z,13.29
2023-06-06T01:37:34.787Z,13.29
2023-06-06T01:38:35.512Z,13.28
2023-06-06T01:39:36.479Z,13.28
2023-06-06T01:40:36.976Z,13.28
2023-06-06T01:41:37.719Z,13.28
2023-06-06T01:42:38.536Z,13.28
2023-06-06T01:43:39.528Z,13.28
2023-06-06T01:44:40.150Z,13.27
2023-06-06T01:45:40.857Z,13.27
2023-06-06T01:46:41.263Z,13.26
2023-06-06T01:47:41.874Z,13.26
2023-06-06T01:47:50.592Z,10.18
2023-06-06T01:48:51.338Z,13.15
2023-06-06T01:49:52.186Z,13.14
2023-06-06T01:50:52.732Z,13.14
2023-06-06T01:51:53.274Z,13.13
2023-06-06T01:52:53.949Z,13.13
2023-06-06T01:53:54.892Z,13.13
2023-06-06T01:54:55.703Z,13.12
2023-06-06T01:55:56.258Z,13.11
2023-06-06T01:56:57.005Z,13.11
2023-06-06T01:57:57.547Z,13.10
2023-06-06T01:58:58.201Z,13.10
2023-06-06T01:59:58.372Z,13.09
2023-06-06T02:00:58.886Z,13.09
2023-06-06T02:01:59.378Z,13.09
2023-06-06T02:02:59.588Z,13.08
2023-06-06T02:04:00.306Z,13.06
2023-06-06T02:05:00.907Z,13.04
2023-06-06T02:06:01.718Z,13.03
2023-06-06T02:07:02.430Z,13.02
2023-06-06T02:08:02.440Z,13.01
2023-06-06T02:09:03.188Z,13.00
2023-06-06T02:10:03.924Z,13.00
2023-06-06T02:11:04.640Z,12.99
2023-06-06T02:12:05.239Z,12.98
2023-06-06T02:13:05.925Z,12.98
2023-06-06T02:14:06.522Z,12.98
2023-06-06T02:15:06.688Z,12.97
2023-06-06T02:16:07.253Z,12.97
2023-06-06T02:17:08.177Z,12.96
2023-06-06T02:18:08.548Z,12.95
2023-06-06T02:18:17.638Z,10.38
2023-06-06T02:19:17.880Z,12.85
2023-06-06T02:20:18.533Z,12.85
2023-06-06T02:21:19.459Z,12.84
2023-06-06T02:22:20.099Z,12.84
2023-06-06T02:23:20.766Z,12.83
2023-06-06T02:24:21.232Z,12.83
2023-06-06T02:25:22.176Z,12.83
2023-06-06T02:26:22.233Z,12.83
2023-06-06T02:27:22.394Z,12.82
2023-06-06T02:28:22.474Z,12.82
2023-06-06T02:29:23.231Z,12.81
2023-06-06T02:30:23.849Z,12.80
2023-06-06T02:31:24.829Z,12.80
2023-06-06T02:32:25.293Z,12.80
2023-06-06T02:33:26.023Z,12.80
2023-06-06T02:34:26.679Z,12.80
2023-06-06T02:35:27.169Z,12.80
2023-06-06T02:36:27.628Z,12.79
2023-06-06T02:37:28.145Z,12.78
2023-06-06T02:38:28.717Z,12.77
2023-06-06T02:39:29.512Z,12.76
2023-06-06T02:40:30.078Z,12.76
2023-06-06T02:41:30.691Z,12.75
2023-06-06T02:42:31.250Z,12.75
2023-06-06T02:43:31.842Z,12.74
2023-06-06T02:44:32.811Z,12.74
2023-06-06T02:45:33.396Z,12.73
2023-06-06T02:46:34.106Z,12.73
2023-06-06T02:47:34.895Z,12.72
2023-06-06T02:48:35.758Z,12.72
2023-06-06T02:49:36.671Z,12.70
2023-06-06T02:50:37.566Z,12.68
2023-06-06T02:50:46.218Z,9.78
2023-06-06T02:51:48.171Z,12.46
2023-06-06T02:52:47.390Z,12.46
2023-06-06T02:53:48.261Z,12.46
2023-06-06T02:54:48.365Z,12.46
2023-06-06T02:55:49.044Z,12.46
2023-06-06T02:56:49.056Z,12.46
2023-06-06T02:57:50.063Z,12.46
2023-06-06T02:58:51.883Z,12.45
2023-06-06T02:59:51.813Z,12.44
2023-06-06T03:00:52.553Z,12.44
2023-06-06T03:01:53.302Z,12.43
2023-06-06T03:02:53.891Z,12.42
2023-06-06T03:03:53.970Z,12.42
2023-06-06T03:04:54.714Z,12.41
2023-06-06T03:05:54.781Z,12.41
2023-06-06T03:06:55.596Z,12.40
2023-06-06T03:07:56.344Z,12.40
2023-06-06T03:08:56.653Z,12.39
2023-06-06T03:09:57.009Z,12.38
2023-06-06T03:10:57.878Z,12.37
2023-06-06T03:11:58.734Z,12.36
2023-06-06T03:12:58.991Z,12.35
2023-06-06T03:13:59.102Z,12.35
2023-06-06T03:14:59.809Z,12.34
2023-06-06T03:16:32.528Z,11.28
2023-06-06T03:17:33.289Z,12.33
2023-06-06T03:18:33.971Z,12.32
2023-06-06T03:19:34.921Z,12.32
2023-06-06T03:20:35.287Z,12.31
2023-06-06T03:21:36.186Z,12.30
2023-06-06T03:22:36.712Z,12.30
2023-06-06T03:23:37.536Z,12.29
2023-06-06T03:24:37.672Z,12.29
2023-06-06T03:25:37.861Z,12.29
2023-06-06T03:26:37.959Z,12.29
2023-06-06T03:27:38.859Z,12.28
2023-06-06T03:28:38.912Z,12.28
2023-06-06T03:29:39.597Z,12.27
2023-06-06T03:30:40.222Z,12.27
2023-06-06T03:31:40.772Z,12.27
2023-06-06T03:32:41.479Z,12.27
2023-06-06T03:33:42.074Z,12.28
2023-06-06T03:34:42.217Z,12.28
2023-06-06T03:35:43.020Z,12.28
2023-06-06T03:36:43.644Z,12.28
2023-06-06T03:37:44.390Z,12.28
2023-06-06T03:38:44.914Z,12.28
2023-06-06T03:39:45.501Z,12.28
2023-06-06T03:40:47.064Z,12.28
2023-06-06T03:41:46.162Z,12.28
2023-06-06T03:42:46.213Z,12.27
2023-06-06T03:43:46.851Z,12.27
2023-06-06T03:44:47.011Z,12.27
2023-06-06T03:45:47.917Z,12.27
2023-06-06T03:45:56.629Z,9.37
2023-06-06T03:46:57.169Z,12.25
2023-06-06T03:47:57.849Z,12.25
2023-06-06T03:48:58.358Z,12.25
2023-06-06T03:49:58.980Z,12.25
2023-06-06T03:50:59.509Z,12.25
2023-06-06T03:52:00.401Z,12.24
2023-06-06T03:53:00.585Z,12.24
2023-06-06T03:54:01.171Z,12.24
2023-06-06T03:55:01.786Z,12.24
2023-06-06T03:56:02.402Z,12.24
2023-06-06T03:57:02.967Z,12.24
2023-06-06T03:58:03.542Z,12.23
2023-06-06T03:59:04.310Z,12.23
2023-06-06T04:00:04.953Z,12.23
2023-06-06T04:01:05.188Z,12.23
2023-06-06T04:02:05.810Z,12.22
2023-06-06T04:03:06.710Z,12.22
2023-06-06T04:04:06.734Z,12.21
2023-06-06T04:05:07.090Z,12.20
2023-06-06T04:06:07.709Z,12.19
2023-06-06T04:07:07.902Z,12.19
2023-06-06T04:08:08.594Z,12.18
2023-06-06T04:09:09.175Z,12.17
2023-06-06T04:10:09.793Z,12.16
2023-06-06T04:11:10.570Z,12.16
2023-06-06T04:12:10.707Z,12.16
2023-06-06T04:13:10.851Z,12.16
2023-06-06T04:14:11.428Z,12.17
2023-06-06T04:15:12.082Z,12.18
2023-06-06T04:16:13.136Z,12.19
2023-06-06T04:17:13.670Z,12.20
2023-06-06T04:17:22.371Z,10.36
2023-06-06T04:18:22.997Z,12.32
2023-06-06T04:19:23.961Z,12.32
2023-06-06T04:20:26.951Z,12.33
2023-06-06T04:21:25.235Z,12.33
2023-06-06T04:22:25.795Z,12.35
2023-06-06T04:23:26.562Z,12.35
2023-06-06T04:24:27.410Z,12.37
2023-06-06T04:25:27.930Z,12.38
2023-06-06T04:26:28.462Z,12.40
2023-06-06T04:27:30.056Z,12.41
2023-06-06T04:28:29.651Z,12.42
2023-06-06T04:29:31.390Z,12.43
2023-06-06T04:30:31.222Z,12.44
2023-06-06T04:31:31.800Z,12.45
2023-06-06T04:32:32.443Z,12.45
2023-06-06T04:33:33.246Z,12.45
2023-06-06T04:34:33.885Z,12.45
2023-06-06T04:35:34.517Z,12.46
2023-06-06T04:36:35.131Z,12.46
2023-06-06T04:37:35.688Z,12.46
2023-06-06T04:38:36.381Z,12.46
2023-06-06T04:39:37.309Z,12.46
2023-06-06T04:40:55.442Z,12.47
2023-06-06T04:42:39.225Z,12.50
2023-06-06T04:43:40.001Z,12.51
2023-06-06T04:44:40.718Z,12.52
2023-06-06T04:45:41.343Z,12.53
2023-06-06T04:46:42.084Z,12.54
2023-06-06T04:47:42.667Z,12.55
2023-06-06T04:47:52.398Z,11.00
2023-06-06T04:48:53.103Z,12.69
2023-06-06T04:49:53.675Z,12.69
2023-06-06T04:50:54.348Z,12.70
2023-06-06T04:51:54.981Z,12.70
2023-06-06T04:52:55.681Z,12.71
2023-06-06T04:53:55.865Z,12.72
2023-06-06T04:54:56.494Z,12.73
2023-06-06T04:55:57.130Z,12.75
2023-06-06T04:56:57.690Z,12.78
2023-06-06T04:57:58.387Z,12.81
2023-06-06T04:58:58.494Z,12.86
2023-06-06T04:59:59.416Z,12.92
2023-06-06T05:01:00.247Z,12.99
2023-06-06T05:02:00.512Z,13.07
2023-06-06T05:03:00.812Z,13.16
2023-06-06T05:04:00.923Z,13.27
2023-06-06T05:05:01.719Z,13.39
2023-06-06T05:06:02.650Z,13.53
2023-06-06T05:07:03.437Z,13.69
2023-06-06T05:08:03.576Z,13.84
2023-06-06T05:09:04.475Z,14.01
2023-06-06T05:10:05.420Z,14.18
2023-06-06T05:11:05.576Z,14.34
2023-06-06T05:12:06.328Z,14.50
2023-06-06T05:13:06.513Z,14.67
2023-06-06T05:14:06.792Z,14.85
2023-06-06T05:15:07.625Z,15.03
2023-06-06T05:16:08.508Z,15.22
2023-06-06T05:17:08.489Z,15.38
2023-06-06T05:18:09.463Z,15.56
2023-06-06T05:18:21.200Z,13.11
2023-06-06T05:19:21.381Z,18.66
2023-06-06T05:20:21.546Z,18.68
2023-06-06T05:21:22.441Z,18.72
2023-06-06T05:22:23.157Z,18.78
2023-06-06T05:23:25.134Z,18.86
2023-06-06T05:24:25.102Z,18.96
2023-06-06T05:25:25.443Z,19.07
2023-06-06T05:26:25.737Z,19.19
2023-06-06T05:27:26.582Z,19.32
2023-06-06T05:28:26.907Z,19.45
2023-06-06T05:29:27.686Z,19.58
2023-06-06T05:30:27.893Z,19.69
2023-06-06T05:31:28.736Z,19.80
2023-06-06T05:32:29.710Z,19.93
2023-06-06T05:33:30.591Z,20.03
2023-06-06T05:34:31.501Z,20.16
2023-06-06T05:35:31.811Z,20.30
2023-06-06T05:36:33.575Z,20.45
2023-06-06T05:37:32.762Z,20.61
2023-06-06T05:38:33.650Z,20.78
2023-06-06T05:39:33.863Z,20.92
2023-06-06T05:40:34.614Z,21.06
2023-06-06T05:41:34.843Z,21.20
2023-06-06T05:42:35.757Z,21.37
2023-06-06T05:43:36.057Z,21.54
2023-06-06T05:44:36.904Z,21.69
2023-06-06T05:45:37.591Z,21.84
2023-06-06T05:45:46.279Z,18.40
2023-06-06T05:46:47.044Z,24.05
2023-06-06T05:47:47.691Z,24.06
2023-06-06T05:48:48.231Z,24.04
2023-06-06T05:49:48.841Z,23.95
2023-06-06T05:50:48.986Z,23.83
2023-06-06T05:51:49.809Z,23.76
2023-06-06T05:52:50.465Z,23.72
2023-06-06T05:53:51.508Z,23.72
2023-06-06T05:54:52.013Z,23.74
2023-06-06T05:55:52.266Z,23.77
2023-06-06T05:56:52.885Z,23.81
2023-06-06T05:57:53.432Z,23.89
2023-06-06T05:58:54.262Z,23.93
2023-06-06T05:59:55.175Z,23.99
2023-06-06T06:00:55.242Z,24.07
2023-06-06T06:01:55.863Z,24.14
2023-06-06T06:02:56.552Z,24.22
2023-06-06T06:03:57.387Z,24.33
2023-06-06T06:04:58.199Z,24.42
2023-06-06T06:05:58.812Z,24.50
2023-06-06T06:06:59.382Z,24.60
2023-06-06T06:08:00.064Z,24.72
2023-06-06T06:09:00.733Z,24.86
2023-06-06T06:10:01.294Z,24.99
2023-06-06T06:11:02.136Z,25.12
2023-06-06T06:12:02.630Z,25.26
2023-06-06T06:13:03.208Z,25.37
2023-06-06T06:14:03.791Z,25.50
2023-06-06T06:15:04.355Z,25.63
2023-06-06T06:16:05.176Z,25.78
2023-06-06T06:17:05.572Z,25.93
2023-06-06T06:18:06.114Z,26.05
2023-06-06T06:18:15.887Z,18.62
2023-06-06T06:19:16.682Z,27.78
2023-06-06T06:20:17.389Z,27.77
2023-06-06T06:21:19.207Z,27.78
2023-06-06T06:22:18.590Z,27.79
2023-06-06T06:23:19.576Z,27.80
2023-06-06T06:24:20.079Z,27.81
2023-06-06T06:25:20.725Z,27.84
2023-06-06T06:26:21.348Z,27.87
2023-06-06T06:27:21.972Z,27.91
2023-06-06T06:28:22.897Z,27.96
2023-06-06T06:29:23.547Z,28.00
2023-06-06T06:30:24.438Z,28.01
2023-06-06T06:31:25.185Z,28.05
2023-06-06T06:32:25.981Z,28.05
2023-06-06T06:33:26.851Z,28.06
2023-06-06T06:34:27.856Z,28.11
2023-06-06T06:35:28.195Z,28.16
2023-06-06T06:36:29.072Z,28.19
2023-06-06T06:37:29.743Z,28.26
2023-06-06T06:38:30.460Z,28.31
2023-06-06T06:39:30.971Z,28.35
2023-06-06T06:40:31.024Z,28.39
2023-06-06T06:41:31.682Z,28.41
2023-06-06T06:42:32.439Z,28.42
2023-06-06T06:43:33.246Z,28.43
2023-06-06T06:44:33.939Z,28.45
2023-06-06T06:45:34.479Z,28.48
2023-06-06T06:46:35.124Z,28.48
2023-06-06T06:47:35.913Z,28.47
2023-06-06T06:48:36.622Z,28.51
2023-06-06T06:49:37.284Z,28.55
2023-06-06T06:50:38.142Z,28.55
2023-06-06T06:50:46.886Z,16.42
2023-06-06T06:51:47.137Z,28.99
2023-06-06T06:52:48.039Z,28.98
2023-06-06T06:53:48.685Z,28.98
2023-06-06T06:54:49.196Z,28.98
2023-06-06T06:55:49.432Z,28.97
2023-06-06T06:56:50.296Z,28.96
2023-06-06T06:57:50.973Z,28.98
2023-06-06T06:58:51.912Z,28.99
2023-06-06T06:59:53.054Z,28.98
2023-06-06T07:00:53.037Z,28.98
2023-06-06T07:01:53.453Z,28.98
2023-06-06T07:02:54.171Z,28.96
2023-06-06T07:03:55.097Z,28.94
2023-06-06T07:04:55.876Z,28.90
2023-06-06T07:05:56.701Z,28.86
2023-06-06T07:06:57.445Z,28.82
2023-06-06T07:07:57.857Z,28.78
2023-06-06T07:09:00.674Z,28.72
2023-06-06T07:09:59.503Z,28.66
2023-06-06T07:11:00.387Z,28.60
2023-06-06T07:12:00.401Z,28.53
2023-06-06T07:13:01.269Z,28.44
2023-06-06T07:14:02.192Z,28.34
2023-06-06T07:15:03.259Z,28.22
2023-06-06T07:16:03.244Z,28.11
2023-06-06T07:17:04.085Z,27.99
2023-06-06T07:18:04.989Z,27.89
2023-06-06T07:19:05.755Z,27.77
2023-06-06T07:20:06.633Z,27.65
2023-06-06T07:21:06.809Z,27.53
2023-06-06T07:21:15.590Z,18.31
2023-06-06T07:22:15.797Z,25.64
2023-06-06T07:23:16.685Z,25.62
2023-06-06T07:24:17.556Z,25.60
2023-06-06T07:25:17.717Z,25.56
2023-06-06T07:26:18.701Z,25.53
2023-06-06T07:27:21.877Z,25.52
2023-06-06T07:28:20.218Z,25.51
2023-06-06T07:29:20.469Z,25.49
2023-06-06T07:30:20.664Z,25.45
2023-06-06T07:31:21.504Z,25.40
2023-06-06T07:32:21.876Z,25.36
2023-06-06T07:33:22.606Z,25.34
2023-06-06T07:34:23.428Z,25.31
2023-06-06T07:35:24.179Z,25.28
2023-06-06T07:36:24.191Z,25.26
2023-06-06T07:37:24.985Z,25.24
2023-06-06T07:38:25.836Z,25.21
2023-06-06T07:39:26.019Z,25.17
2023-06-06T07:40:26.112Z,25.12
2023-06-06T07:41:26.099Z,25.08
2023-06-06T07:42:27.023Z,25.01
2023-06-06T07:43:27.865Z,24.94
2023-06-06T07:44:28.672Z,24.87
2023-06-06T07:45:29.284Z,24.80
2023-06-06T07:46:30.023Z,24.74
2023-06-06T07:47:30.807Z,24.68
2023-06-06T07:48:31.572Z,24.64
2023-06-06T07:49:32.334Z,24.59
2023-06-06T07:50:33.095Z,24.54
2023-06-06T07:51:33.986Z,24.49
2023-06-06T07:52:34.880Z,24.44
2023-06-06T07:52:47.104Z,16.33
2023-06-06T07:53:47.953Z,23.57
2023-06-06T07:54:48.210Z,23.58
2023-06-06T07:55:48.957Z,23.58
2023-06-06T07:56:49.889Z,23.57
2023-06-06T07:57:50.271Z,23.56
2023-06-06T07:58:51.133Z,23.55
2023-06-06T07:59:51.170Z,23.54
2023-06-06T08:00:51.427Z,23.54
2023-06-06T08:01:52.279Z,23.53
2023-06-06T08:02:52.425Z,23.53
2023-06-06T08:03:52.422Z,23.51
2023-06-06T08:04:53.728Z,23.50
2023-06-06T08:05:53.011Z,23.49
2023-06-06T08:06:53.926Z,23.48
2023-06-06T08:07:54.524Z,23.47
2023-06-06T08:08:55.222Z,23.46
2023-06-06T08:09:56.140Z,23.45
2023-06-06T08:10:56.435Z,23.45
2023-06-06T08:11:56.751Z,23.45
2023-06-06T08:12:58.615Z,23.45
2023-06-06T08:13:58.066Z,23.45
2023-06-06T08:14:58.877Z,23.46
2023-06-06T08:15:59.932Z,23.48
2023-06-06T08:17:00.085Z,23.49
2023-06-06T08:18:01.114Z,23.51
2023-06-06T08:19:01.953Z,23.51
2023-06-06T08:20:02.701Z,23.51
2023-06-06T08:21:03.591Z,23.50
2023-06-06T08:22:04.501Z,23.50
2023-06-06T08:23:05.209Z,23.51
2023-06-06T08:23:13.457Z,15.60
2023-06-06T08:24:14.373Z,23.69
2023-06-06T08:25:15.084Z,23.69
2023-06-06T08:26:16.006Z,23.69
2023-06-06T08:27:16.957Z,23.70
2023-06-06T08:28:17.813Z,23.71
2023-06-06T08:29:18.736Z,23.73
2023-06-06T08:30:19.604Z,23.76
2023-06-06T08:31:20.499Z,23.80
2023-06-06T08:32:21.379Z,23.83
2023-06-06T08:33:21.434Z,23.86
2023-06-06T08:34:21.476Z,23.89
2023-06-06T08:35:22.274Z,23.93
2023-06-06T08:36:24.025Z,23.97
2023-06-06T08:37:23.932Z,24.00
2023-06-06T08:38:24.228Z,24.03
2023-06-06T08:39:24.366Z,24.07
2023-06-06T08:40:25.158Z,24.10
2023-06-06T08:41:25.419Z,24.13
2023-06-06T08:42:26.401Z,24.15
2023-06-06T08:43:26.582Z,24.18
2023-06-06T08:44:26.863Z,24.23
2023-06-06T08:45:27.535Z,24.28
2023-06-06T08:46:28.592Z,24.33
2023-06-06T08:47:28.786Z,24.39
2023-06-06T08:48:29.653Z,24.43
2023-06-06T08:49:30.444Z,24.47
2023-06-06T08:50:31.403Z,24.50
2023-06-06T08:51:32.294Z,24.52
2023-06-06T08:52:33.122Z,24.53
2023-06-06T08:53:33.939Z,24.56
2023-06-06T08:54:33.959Z,24.58
2023-06-06T08:54:45.637Z,16.24
2023-06-06T08:55:46.509Z,24.88
2023-06-06T08:56:47.235Z,24.86
2023-06-06T08:57:49.436Z,24.84
2023-06-06T08:58:48.847Z,24.83
2023-06-06T08:59:49.654Z,24.83
2023-06-06T09:00:50.410Z,24.82
2023-06-06T09:01:51.225Z,24.80
2023-06-06T09:02:52.071Z,24.78
2023-06-06T09:03:52.065Z,24.77
2023-06-06T09:04:52.076Z,24.75
2023-06-06T09:05:52.883Z,24.72
2023-06-06T09:06:53.794Z,24.66
2023-06-06T09:07:53.991Z,24.59
2023-06-06T09:08:54.507Z,24.53
2023-06-06T09:09:55.246Z,24.48
2023-06-06T09:10:56.160Z,24.44
2023-06-06T09:11:57.088Z,24.41
2023-06-06T09:12:57.189Z,24.38
2023-06-06T09:13:57.366Z,24.35
2023-06-06T09:14:58.358Z,24.32
2023-06-06T09:15:59.228Z,24.28
2023-06-06T09:17:00.382Z,24.25
2023-06-06T09:18:00.458Z,24.22
2023-06-06T09:19:00.654Z,24.22
2023-06-06T09:20:01.464Z,24.22
2023-06-06T09:21:02.142Z,24.23
2023-06-06T09:22:02.560Z,24.24
2023-06-06T09:23:03.589Z,24.27
2023-06-06T09:24:04.589Z,24.30
2023-06-06T09:25:04.584Z,24.33
2023-06-06T09:25:13.847Z,19.21
2023-06-06T09:26:13.759Z,24.91
2023-06-06T09:27:14.507Z,24.92
2023-06-06T09:28:14.778Z,24.95
2023-06-06T09:29:14.564Z,24.97
2023-06-06T09:30:15.438Z,25.00
2023-06-06T09:31:16.342Z,25.02
2023-06-06T09:32:17.505Z,25.04
2023-06-06T09:33:17.378Z,25.06
2023-06-06T09:34:18.262Z,25.08
2023-06-06T09:35:18.431Z,25.10
2023-06-06T09:36:19.570Z,25.08
2023-06-06T09:37:19.809Z,25.07
2023-06-06T09:38:20.664Z,25.07
2023-06-06T09:39:21.226Z,25.04
2023-06-06T09:40:22.028Z,25.03
2023-06-06T09:41:22.978Z,25.03
2023-06-06T09:42:23.176Z,25.03
2023-06-06T09:43:24.103Z,25.03
2023-06-06T09:44:24.798Z,25.03
2023-06-06T09:45:25.568Z,24.99
2023-06-06T09:46:25.758Z,24.94
2023-06-06T09:47:26.127Z,24.93
2023-06-06T09:48:53.141Z,16.19
2023-06-06T09:49:53.633Z,23.86
2023-06-06T09:50:54.566Z,23.87
2023-06-06T09:51:55.281Z,23.90
2023-06-06T09:52:55.453Z,23.92
2023-06-06T09:53:55.454Z,23.92
2023-06-06T09:54:56.292Z,23.94
2023-06-06T09:55:57.137Z,23.97
2023-06-06T09:56:58.056Z,24.00
2023-06-06T09:57:58.804Z,24.04
2023-06-06T09:59:01.559Z,24.10
2023-06-06T10:00:00.270Z,24.17
2023-06-06T10:01:01.124Z,24.23
2023-06-06T10:02:02.056Z,24.30
2023-06-06T10:03:03.060Z,24.36
2023-06-06T10:04:04.046Z,24.43
2023-06-06T10:05:04.731Z,24.50
2023-06-06T10:06:05.193Z,24.57
2023-06-06T10:07:06.077Z,24.64
2023-06-06T10:08:06.887Z,24.72
2023-06-06T10:09:07.897Z,24.80
2023-06-06T10:10:08.782Z,24.88
2023-06-06T10:11:09.602Z,24.97
2023-06-06T10:12:10.462Z,25.05
2023-06-06T10:13:11.329Z,25.14
2023-06-06T10:14:11.531Z,25.21
2023-06-06T10:15:12.385Z,25.29
2023-06-06T10:16:13.323Z,25.37
2023-06-06T10:17:14.063Z,25.45
2023-06-06T10:18:14.905Z,25.53
2023-06-06T10:19:15.847Z,25.61
2023-06-06T10:20:16.572Z,25.68
2023-06-06T10:20:27.242Z,20.35
2023-06-06T10:21:28.219Z,26.82
2023-06-06T10:22:29.041Z,26.82
2023-06-06T10:23:29.857Z,26.81
2023-06-06T10:24:30.065Z,26.77
2023-06-06T10:25:30.902Z,26.76
2023-06-06T10:26:31.782Z,26.76
2023-06-06T10:27:32.615Z,26.77
2023-06-06T10:28:33.322Z,26.79
2023-06-06T10:29:34.345Z,26.81
2023-06-06T10:30:36.067Z,26.83
2023-06-06T10:31:36.976Z,26.85
2023-06-06T10:32:36.950Z,26.86
2023-06-06T10:33:37.796Z,26.87
2023-06-06T10:34:38.670Z,26.87
2023-06-06T10:35:42.408Z,26.88
2023-06-06T10:36:39.944Z,26.87
2023-06-06T10:37:40.870Z,26.87
2023-06-06T10:38:41.713Z,26.85
2023-06-06T10:39:42.734Z,26.83
2023-06-06T10:40:42.499Z,26.79
2023-06-06T10:41:43.389Z,26.77
2023-06-06T10:42:45.313Z,26.70
2023-06-06T10:43:44.574Z,26.66
2023-06-06T10:44:44.650Z,26.63
2023-06-06T10:45:45.610Z,26.60
2023-06-06T10:46:46.542Z,26.58
2023-06-06T10:47:50.088Z,26.58
2023-06-06T10:48:48.300Z,26.59
2023-06-06T10:49:49.139Z,26.62
2023-06-06T10:50:50.053Z,26.63
2023-06-06T10:50:58.763Z,17.43
2023-06-06T10:51:59.681Z,26.35
2023-06-06T10:53:00.438Z,26.34
2023-06-06T10:54:01.231Z,26.35
2023-06-06T10:55:02.094Z,26.36
2023-06-06T10:56:02.865Z,26.35
2023-06-06T10:57:02.987Z,26.36
2023-06-06T10:58:03.135Z,26.39
2023-06-06T10:59:03.392Z,26.41
2023-06-06T11:00:04.468Z,26.43
2023-06-06T11:01:05.298Z,26.46
2023-06-06T11:02:06.096Z,26.50
2023-06-06T11:03:07.063Z,26.55
2023-06-06T11:04:07.844Z,26.60
2023-06-06T11:05:08.567Z,26.65
2023-06-06T11:06:08.959Z,26.71
2023-06-06T11:07:08.858Z,26.77
2023-06-06T11:08:09.709Z,26.81
2023-06-06T11:09:10.464Z,26.85
2023-06-06T11:10:10.487Z,26.86
2023-06-06T11:11:11.374Z,26.83
2023-06-06T11:12:12.095Z,26.80
2023-06-06T11:13:12.935Z,26.80
2023-06-06T11:14:13.668Z,26.82
2023-06-06T11:15:13.699Z,26.83
2023-06-06T11:16:13.931Z,26.85
2023-06-06T11:17:15.006Z,26.87
2023-06-06T11:18:15.736Z,26.89
2023-06-06T11:19:16.536Z,26.92
2023-06-06T11:20:22.944Z,26.94
2023-06-06T11:21:18.008Z,26.97
2023-06-06T11:22:18.133Z,27.01
2023-06-06T11:23:19.044Z,27.05
2023-06-06T11:24:18.998Z,27.09
2023-06-06T11:24:27.663Z,18.49
2023-06-06T11:25:28.429Z,27.83
2023-06-06T11:26:29.372Z,27.84
2023-06-06T11:27:29.399Z,27.86
2023-06-06T11:28:29.588Z,27.87
2023-06-06T11:29:30.315Z,27.88
2023-06-06T11:30:30.947Z,27.86
2023-06-06T11:31:31.658Z,27.82
2023-06-06T11:32:32.332Z,27.77
2023-06-06T11:33:33.024Z,27.72
2023-06-06T11:34:33.888Z,27.68
2023-06-06T11:35:34.394Z,27.63
2023-06-06T11:36:35.052Z,27.59
2023-06-06T11:37:35.188Z,27.55
2023-06-06T11:38:36.080Z,27.52
2023-06-06T11:39:36.384Z,27.50
2023-06-06T11:40:36.968Z,27.47
2023-06-06T11:41:37.855Z,27.47
2023-06-06T11:42:38.128Z,27.47
2023-06-06T11:43:38.752Z,27.46
2023-06-06T11:44:39.445Z,27.46
2023-06-06T11:45:40.159Z,27.47
2023-06-06T11:46:40.960Z,27.49
2023-06-06T11:47:41.627Z,27.51
2023-06-06T11:48:42.156Z,27.53
2023-06-06T11:49:43.165Z,27.56
2023-06-06T11:50:44.034Z,27.58
2023-06-06T11:51:44.713Z,27.58
2023-06-06T11:52:45.447Z,27.59
2023-06-06T11:53:46.130Z,27.57
2023-06-06T11:54:46.944Z,27.53
2023-06-06T11:54:55.796Z,17.77
2023-06-06T11:55:56.487Z,26.90
2023-06-06T11:56:57.112Z,26.89
2023-06-06T11:57:57.761Z,26.88
2023-06-06T11:58:58.332Z,26.86
2023-06-06T11:59:59.035Z,26.83
2023-06-06T12:01:01.107Z,26.80
2023-06-06T12:02:00.155Z,26.77
2023-06-06T12:03:00.990Z,26.72
2023-06-06T12:04:01.840Z,26.68
2023-06-06T12:05:02.796Z,26.63
2023-06-06T12:06:05.520Z,26.59
2023-06-06T12:07:03.458Z,26.55
2023-06-06T12:08:04.384Z,26.50
2023-06-06T12:09:05.006Z,26.45
2023-06-06T12:10:05.861Z,26.39
2023-06-06T12:11:06.590Z,26.35
2023-06-06T12:12:07.216Z,26.30
2023-06-06T12:13:07.864Z,26.26
2023-06-06T12:14:08.555Z,26.22
2023-06-06T12:15:09.452Z,26.18
2023-06-06T12:16:10.310Z,26.15
2023-06-06T12:17:10.909Z,26.12
2023-06-06T12:18:13.884Z,26.09
2023-06-06T12:19:11.937Z,26.06
2023-06-06T12:20:12.888Z,26.04
2023-06-06T12:21:13.685Z,26.02
2023-06-06T12:22:14.357Z,26.00
2023-06-06T12:23:15.074Z,25.99
2023-06-06T12:24:15.849Z,25.98
2023-06-06T12:25:16.533Z,25.96
2023-06-06T12:26:17.257Z,25.95
2023-06-06T12:27:18.100Z,25.96
2023-06-06T12:27:26.759Z,25.57
2023-06-06T12:28:26.799Z,25.63
2023-06-06T12:29:27.732Z,25.70
2023-06-06T12:30:28.636Z,25.77
2023-06-06T12:31:29.573Z,25.84
2023-06-06T12:32:30.374Z,25.92
2023-06-06T12:33:31.342Z,26.01
2023-06-06T12:34:31.498Z,26.11
2023-06-06T12:35:31.630Z,26.20
2023-06-06T12:36:32.489Z,26.28
2023-06-06T12:37:33.216Z,26.36
2023-06-06T12:38:34.052Z,26.44
2023-06-06T12:39:34.784Z,26.50
2023-06-06T12:40:35.618Z,26.54
2023-06-06T12:41:36.217Z,26.58
2023-06-06T12:42:37.026Z,26.61